KCMH/CMH METAR and TAF weather

Enter ICAO airport designator
Station Type Date Time Source
KCMH METAR 2020/09/22 19:51 UTC NOAA

KCMH 221951Z 00000KT 10SM FEW250 22/06 A3017 RMK AO2 SLP215 T02220056


Station Type Date Time Source
KCMH Decoded METAR 2020/09/22 19:51 UTC NOAA

PORT COLUMBUS INTERNATIONAL AIRPORT, OH, United States (KCMH) 40-00N 82-53W 247M
Sep 22, 2020 - 03:51 PM EDT / 2020.09.22 1951 UTC
Wind: Calm:0
Visibility: 10 mile(s):0
Sky conditions: mostly clear
Temperature: 72.0 F (22.2 C)
Dew Point: 42.1 F (5.6 C)
Relative Humidity: 33%
Pressure (altimeter): 30.17 in. Hg (1021 hPa)
ob: KCMH 221951Z 00000KT 10SM FEW250 22/06 A3017 RMK AO2 SLP215 T02220056
cycle: 20

Station Type Date Time Source
KCMH TAF 2020/09/22 18:45 UTC NOAA

TAF KCMH 221741Z 2218/2318 VRB03KT P6SM FEW040 SCT250

Example: see airport list